MV Hansa Augsburg — A8PN3 — position and weather

sailwx.info

Track history (hours):
 
Tides and Currents Weather Stations Pressure Air Temp Water Temp Dewpoint Dewpoint Depression Visibility Wind Speed Wind Dir Waves Ship Positions

MV Hansa Augsburg

Last reported at 2018-Feb-17 05:35 UTC. Time now 2018-Feb-21 19:20 UTC.
Position N 12°09' W 072°28'.

Length 175 m; draft 8.8 m.

Type: Ship (hazmat cat D). MMSI: 636091575.

Date/timePositionNaut miles runAvg speedWind from/ knotsBaromVisibWave heightAir tempDewpointWater temp
2018-Feb-17 05:35N 12°09' W 072°28'215.1
2018-Feb-17 05:28N 12°09' W 072°30'816.9
2018-Feb-17 04:58N 12°05' W 072°37'1017.7
2018-Feb-17 04:25N 12°01' W 072°47'717.6
2018-Feb-17 04:00N 11°58' W 072°54'917.5
2018-Feb-17 03:30N 11°55' W 073°02'1017.9
2018-Feb-17 02:57N 11°51' W 073°11'817.5
2018-Feb-17 02:29N 11°48' W 073°19'817.3
2018-Feb-17 02:00N 11°45' W 073°27'1317.4
2018-Feb-17 01:14N 11°39' W 073°39'517.4
2018-Feb-17 00:58N 11°37' W 073°43'917.1
2018-Feb-17 00:28N 11°34' W 073°52'816.7
2018-Feb-17 00:00N 11°31' W 073°59'917.2
2018-Feb-16 23:28N 11°27' W 074°07'816.9
2018-Feb-16 22:59N 11°24' W 074°15'916.1
2018-Feb-16 22:26N 11°21' W 074°23'716.6
2018-Feb-16 22:00N 11°18' W 074°30'816.5
2018-Feb-16 21:29N 11°14' W 074°38'816.3
2018-Feb-16 21:00N 11°11' W 074°46'815.4
2018-Feb-16 20:30N 11°08' W 074°52'510.6
2018-Feb-16 19:59N 11°03' W 074°50'612.1
2018-Feb-16 19:29N 10°59' W 074°45'1 1.3
2018-Feb-16 18:59N 10°58' W 074°46'0 0.0
2018-Feb-16 18:29N 10°58' W 074°46'0 0.0
2018-Feb-16 17:59N 10°58' W 074°46'0 0.0
2018-Feb-16 17:29N 10°58' W 074°46'0 0.0
2018-Feb-16 16:59N 10°58' W 074°46'0 0.0
2018-Feb-16 16:23N 10°58' W 074°46'0 0.0
2018-Feb-16 15:59N 10°58' W 074°46'0 0.0
2018-Feb-16 15:29N 10°58' W 074°46'0 0.0
2018-Feb-16 14:59N 10°58' W 074°46'0 0.0
2018-Feb-16 14:29N 10°58' W 074°46'0 0.0
2018-Feb-16 13:59N 10°58' W 074°46'0 0.0
2018-Feb-16 13:26N 10°58' W 074°46'0 0.0
2018-Feb-16 12:59N 10°58' W 074°46'0 0.0
2018-Feb-16 12:29N 10°58' W 074°46'0 0.0
2018-Feb-16 11:59N 10°58' W 074°46'0 0.0
2018-Feb-16 11:26N 10°58' W 074°46'0 0.0
2018-Feb-16 10:56N 10°58' W 074°46'0 0.0
2018-Feb-16 10:26N 10°58' W 074°46'0 0.0
2018-Feb-16 09:50N 10°58' W 074°46'0 0.0
2018-Feb-16 09:26N 10°58' W 074°46'0 0.0
2018-Feb-16 08:50N 10°58' W 074°46'0 0.0
2018-Feb-16 04:30N 10°58' W 074°45'0 0.2
2018-Feb-16 03:48N 10°58' W 074°46'0 0.0
2018-Feb-16 02:30N 10°58' W 074°46'0 0.0
2018-Feb-16 01:51N 10°58' W 074°46'0 0.0
2018-Feb-15 23:45N 10°58' W 074°46'0 0.0
2018-Feb-15 22:06N 10°58' W 074°46'0 0.4
2018-Feb-15 21:50N 10°58' W 074°45'3 6.6
2018-Feb-15 21:22N 11°01' W 074°47'3 7.7
2018-Feb-15 20:57N 11°03' W 074°49'4 8.3
2018-Feb-15 20:27N 11°06' W 074°51'2 3.9
2018-Feb-15 19:57N 11°07' W 074°53'3 5.6
2018-Feb-15 19:29N 11°07' W 074°56'2 4.3
2018-Feb-15 18:59N 11°06' W 074°58'2 4.3
2018-Feb-15 18:29N 11°06' W 075°00'3 5.1
2018-Feb-15 17:59N 11°06' W 075°03'3 5.4
2018-Feb-15 17:30N 11°09' W 075°01'611.5
2018-Feb-15 17:00N 11°11' W 074°56'714.3
2018-Feb-15 16:30N 11°11' W 074°49'714.9
2018-Feb-15 16:00N 11°11' W 074°41'815.2
2018-Feb-15 15:30N 11°12' W 074°33'20 7.2
2018-Feb-15 12:42N 11°15' W 074°13'0 0.0
2018-Feb-15 12:24N 11°15' W 074°13'4 0.7
2018-Feb-15 06:22N 11°14' W 074°17'412.4
2018-Feb-15 06:00N 11°14' W 074°22'  
2018-Feb-10 01:01N 25°31' W 079°42'014.7
2018-Feb-10 01:01N 25°31' W 079°42'714.1
2018-Feb-10 00:31N 25°35' W 079°48'713.8
2018-Feb-10 00:00N 25°40' W 079°54'713.6
2018-Feb-09 23:31N 25°44' W 079°60'510.7
2018-Feb-09 23:00N 25°46' W 080°06'311.0
2018-Feb-09 22:46N 25°46' W 080°09'1 0.3
2018-Feb-09 17:30N 25°46' W 080°10'0 0.0
2018-Feb-09 17:00N 25°46' W 080°10'0 0.0
2018-Feb-08 17:00N 25°46' W 080°10'3 2.9
2018-Feb-08 16:00N 25°45' W 080°07'1510.0
2018-Feb-08 14:30N 25°39' W 079°52'1414.1
2018-Feb-08 13:30N 25°28' W 079°42'  
Track history (hours):
 
Tides and Currents Weather Stations Pressure Air Temp Water Temp Dewpoint Dewpoint Depression Visibility Wind Speed Wind Dir Waves Ship Positions

MV Hansa Augsburg

Last reported at 2018-Feb-17 05:35 UTC. Time now 2018-Feb-21 19:20 UTC.
Position N 12°09' W 072°28'.

Length 175 m; draft 8.8 m.

Type: Ship (hazmat cat D). MMSI: 636091575.

Date/timePositionNaut miles runAvg speedWind from/ knotsBaromVisibWave heightAir tempDewpointWater temp
2018-Feb-17 05:35N 12°09' W 072°28'215.1
2018-Feb-17 05:28N 12°09' W 072°30'816.9
2018-Feb-17 04:58N 12°05' W 072°37'1017.7
2018-Feb-17 04:25N 12°01' W 072°47'717.6
2018-Feb-17 04:00N 11°58' W 072°54'917.5
2018-Feb-17 03:30N 11°55' W 073°02'1017.9
2018-Feb-17 02:57N 11°51' W 073°11'817.5
2018-Feb-17 02:29N 11°48' W 073°19'817.3
2018-Feb-17 02:00N 11°45' W 073°27'1317.4
2018-Feb-17 01:14N 11°39' W 073°39'517.4
2018-Feb-17 00:58N 11°37' W 073°43'917.1
2018-Feb-17 00:28N 11°34' W 073°52'816.7
2018-Feb-17 00:00N 11°31' W 073°59'917.2
2018-Feb-16 23:28N 11°27' W 074°07'816.9
2018-Feb-16 22:59N 11°24' W 074°15'916.1
2018-Feb-16 22:26N 11°21' W 074°23'716.6
2018-Feb-16 22:00N 11°18' W 074°30'816.5
2018-Feb-16 21:29N 11°14' W 074°38'816.3
2018-Feb-16 21:00N 11°11' W 074°46'815.4
2018-Feb-16 20:30N 11°08' W 074°52'510.6
2018-Feb-16 19:59N 11°03' W 074°50'612.1
2018-Feb-16 19:29N 10°59' W 074°45'1 1.3
2018-Feb-16 18:59N 10°58' W 074°46'0 0.0
2018-Feb-16 18:29N 10°58' W 074°46'0 0.0
2018-Feb-16 17:59N 10°58' W 074°46'0 0.0
2018-Feb-16 17:29N 10°58' W 074°46'0 0.0
2018-Feb-16 16:59N 10°58' W 074°46'0 0.0
2018-Feb-16 16:23N 10°58' W 074°46'0 0.0
2018-Feb-16 15:59N 10°58' W 074°46'0 0.0
2018-Feb-16 15:29N 10°58' W 074°46'0 0.0
2018-Feb-16 14:59N 10°58' W 074°46'0 0.0
2018-Feb-16 14:29N 10°58' W 074°46'0 0.0
2018-Feb-16 13:59N 10°58' W 074°46'0 0.0
2018-Feb-16 13:26N 10°58' W 074°46'0 0.0
2018-Feb-16 12:59N 10°58' W 074°46'0 0.0
2018-Feb-16 12:29N 10°58' W 074°46'0 0.0
2018-Feb-16 11:59N 10°58' W 074°46'0 0.0
2018-Feb-16 11:26N 10°58' W 074°46'0 0.0
2018-Feb-16 10:56N 10°58' W 074°46'0 0.0
2018-Feb-16 10:26N 10°58' W 074°46'0 0.0
2018-Feb-16 09:50N 10°58' W 074°46'0 0.0
2018-Feb-16 09:26N 10°58' W 074°46'0 0.0
2018-Feb-16 08:50N 10°58' W 074°46'0 0.0
2018-Feb-16 04:30N 10°58' W 074°45'0 0.2
2018-Feb-16 03:48N 10°58' W 074°46'0 0.0
2018-Feb-16 02:30N 10°58' W 074°46'0 0.0
2018-Feb-16 01:51N 10°58' W 074°46'0 0.0
2018-Feb-15 23:45N 10°58' W 074°46'0 0.0
2018-Feb-15 22:06N 10°58' W 074°46'0 0.4
2018-Feb-15 21:50N 10°58' W 074°45'3 6.6
2018-Feb-15 21:22N 11°01' W 074°47'3 7.7
2018-Feb-15 20:57N 11°03' W 074°49'4 8.3
2018-Feb-15 20:27N 11°06' W 074°51'2 3.9
2018-Feb-15 19:57N 11°07' W 074°53'3 5.6
2018-Feb-15 19:29N 11°07' W 074°56'2 4.3
2018-Feb-15 18:59N 11°06' W 074°58'2 4.3
2018-Feb-15 18:29N 11°06' W 075°00'3 5.1
2018-Feb-15 17:59N 11°06' W 075°03'3 5.4
2018-Feb-15 17:30N 11°09' W 075°01'611.5
2018-Feb-15 17:00N 11°11' W 074°56'714.3
2018-Feb-15 16:30N 11°11' W 074°49'714.9
2018-Feb-15 16:00N 11°11' W 074°41'815.2
2018-Feb-15 15:30N 11°12' W 074°33'20 7.2
2018-Feb-15 12:42N 11°15' W 074°13'0 0.0
2018-Feb-15 12:24N 11°15' W 074°13'4 0.7
2018-Feb-15 06:22N 11°14' W 074°17'412.4
2018-Feb-15 06:00N 11°14' W 074°22'  
2018-Feb-10 01:01N 25°31' W 079°42'014.7
2018-Feb-10 01:01N 25°31' W 079°42'714.1
2018-Feb-10 00:31N 25°35' W 079°48'713.8
2018-Feb-10 00:00N 25°40' W 079°54'713.6
2018-Feb-09 23:31N 25°44' W 079°60'510.7
2018-Feb-09 23:00N 25°46' W 080°06'311.0
2018-Feb-09 22:46N 25°46' W 080°09'1 0.3
2018-Feb-09 17:30N 25°46' W 080°10'0 0.0
2018-Feb-09 17:00N 25°46' W 080°10'0 0.0
2018-Feb-08 17:00N 25°46' W 080°10'3 2.9
2018-Feb-08 16:00N 25°45' W 080°07'1510.0
2018-Feb-08 14:30N 25°39' W 079°52'1414.1
2018-Feb-08 13:30N 25°28' W 079°42'  

Dump ship's entire track history